sensor_id;sensor_type;location;lat;lon;timestamp;P1;durP1;ratioP1;P2;durP2;ratioP2
1294;SDS011;640;48.310;11.728;2022-10-16T00:01:26;3.58;;;1.83;;
1294;SDS011;640;48.310;11.728;2022-10-16T00:03:56;4.60;;;2.00;;
1294;SDS011;640;48.310;11.728;2022-10-16T00:08:54;3.55;;;1.90;;
1294;SDS011;640;48.310;11.728;2022-10-16T00:11:23;2.38;;;1.90;;
1294;SDS011;640;48.310;11.728;2022-10-16T00:13:54;2.47;;;1.88;;
1294;SDS011;640;48.310;11.728;2022-10-16T00:16:24;5.55;;;2.13;;
1294;SDS011;640;48.310;11.728;2022-10-16T00:18:53;3.78;;;1.90;;
1294;SDS011;640;48.310;11.728;2022-10-16T00:21:23;3.88;;;1.80;;
1294;SDS011;640;48.310;11.728;2022-10-16T00:23:54;10.05;;;2.28;;
1294;SDS011;640;48.310;11.728;2022-10-16T00:26:23;3.17;;;1.95;;
1294;SDS011;640;48.310;11.728;2022-10-16T00:29:00;3.42;;;1.80;;
1294;SDS011;640;48.310;11.728;2022-10-16T00:31:29;3.35;;;2.00;;
1294;SDS011;640;48.310;11.728;2022-10-16T00:33:58;5.10;;;1.88;;
1294;SDS011;640;48.310;11.728;2022-10-16T00:36:28;3.00;;;1.80;;
1294;SDS011;640;48.310;11.728;2022-10-16T00:38:57;4.38;;;2.03;;
1294;SDS011;640;48.310;11.728;2022-10-16T00:41:32;5.45;;;1.70;;
1294;SDS011;640;48.310;11.728;2022-10-16T00:44:01;3.65;;;1.80;;
1294;SDS011;640;48.310;11.728;2022-10-16T00:46:33;3.97;;;1.75;;
1294;SDS011;640;48.310;11.728;2022-10-16T00:49:05;2.22;;;1.63;;
1294;SDS011;640;48.310;11.728;2022-10-16T00:51:38;3.33;;;2.25;;
1294;SDS011;640;48.310;11.728;2022-10-16T00:54:09;3.58;;;1.80;;
1294;SDS011;640;48.310;11.728;2022-10-16T00:56:40;3.30;;;1.92;;
1294;SDS011;640;48.310;11.728;2022-10-16T00:59:10;3.70;;;1.75;;
1294;SDS011;640;48.310;11.728;2022-10-16T01:01:41;3.47;;;1.60;;
1294;SDS011;640;48.310;11.728;2022-10-16T01:04:09;6.22;;;1.65;;
1294;SDS011;640;48.310;11.728;2022-10-16T01:06:40;3.13;;;1.80;;
1294;SDS011;640;48.310;11.728;2022-10-16T01:09:14;2.13;;;1.70;;
1294;SDS011;640;48.310;11.728;2022-10-16T01:11:45;2.80;;;1.60;;
1294;SDS011;640;48.310;11.728;2022-10-16T01:14:20;3.38;;;1.70;;
1294;SDS011;640;48.310;11.728;2022-10-16T01:16:53;3.10;;;1.75;;
1294;SDS011;640;48.310;11.728;2022-10-16T01:19:26;2.05;;;1.70;;
1294;SDS011;640;48.310;11.728;2022-10-16T01:22:06;3.17;;;1.80;;
1294;SDS011;640;48.310;11.728;2022-10-16T01:24:37;3.47;;;1.63;;
1294;SDS011;640;48.310;11.728;2022-10-16T01:27:10;3.05;;;1.80;;
1294;SDS011;640;48.310;11.728;2022-10-16T01:29:41;2.85;;;1.65;;
1294;SDS011;640;48.310;11.728;2022-10-16T01:32:15;2.80;;;1.70;;
1294;SDS011;640;48.310;11.728;2022-10-16T01:34:47;5.10;;;1.70;;
1294;SDS011;640;48.310;11.728;2022-10-16T01:37:21;3.83;;;1.85;;
1294;SDS011;640;48.310;11.728;2022-10-16T01:39:54;3.40;;;1.92;;
1294;SDS011;640;48.310;11.728;2022-10-16T01:42:26;4.83;;;1.53;;
1294;SDS011;640;48.310;11.728;2022-10-16T01:44:57;3.15;;;1.70;;
1294;SDS011;640;48.310;11.728;2022-10-16T01:47:26;4.32;;;1.80;;
1294;SDS011;640;48.310;11.728;2022-10-16T01:49:55;10.73;;;1.83;;
1294;SDS011;640;48.310;11.728;2022-10-16T01:52:25;4.70;;;2.00;;
1294;SDS011;640;48.310;11.728;2022-10-16T01:54:55;6.22;;;1.60;;
1294;SDS011;640;48.310;11.728;2022-10-16T01:57:25;6.38;;;1.70;;
1294;SDS011;640;48.310;11.728;2022-10-16T02:02:24;4.68;;;1.60;;
1294;SDS011;640;48.310;11.728;2022-10-16T02:07:25;3.22;;;1.73;;
1294;SDS011;640;48.310;11.728;2022-10-16T02:09:53;2.47;;;1.80;;
1294;SDS011;640;48.310;11.728;2022-10-16T02:12:23;3.85;;;1.80;;
1294;SDS011;640;48.310;11.728;2022-10-16T02:14:55;3.50;;;1.70;;
1294;SDS011;640;48.310;11.728;2022-10-16T02:17:24;3.35;;;1.80;;
1294;SDS011;640;48.310;11.728;2022-10-16T02:19:53;4.65;;;1.77;;
1294;SDS011;640;48.310;11.728;2022-10-16T02:22:24;4.40;;;1.70;;
1294;SDS011;640;48.310;11.728;2022-10-16T02:24:56;2.85;;;1.63;;
1294;SDS011;640;48.310;11.728;2022-10-16T02:27:29;4.53;;;1.75;;
1294;SDS011;640;48.310;11.728;2022-10-16T02:30:04;2.80;;;1.65;;
1294;SDS011;640;48.310;11.728;2022-10-16T02:32:36;3.47;;;1.80;;
1294;SDS011;640;48.310;11.728;2022-10-16T02:37:34;3.95;;;2.28;;
1294;SDS011;640;48.310;11.728;2022-10-16T02:40:03;4.15;;;2.28;;
1294;SDS011;640;48.310;11.728;2022-10-16T02:42:34;3.10;;;1.70;;
1294;SDS011;640;48.310;11.728;2022-10-16T02:47:32;1.98;;;1.70;;
1294;SDS011;640;48.310;11.728;2022-10-16T02:50:00;6.20;;;2.00;;
1294;SDS011;640;48.310;11.728;2022-10-16T02:52:29;4.40;;;1.90;;
1294;SDS011;640;48.310;11.728;2022-10-16T02:54:57;5.35;;;1.63;;
1294;SDS011;640;48.310;11.728;2022-10-16T02:57:25;3.50;;;1.75;;
1294;SDS011;640;48.310;11.728;2022-10-16T02:59:55;3.83;;;2.47;;
1294;SDS011;640;48.310;11.728;2022-10-16T03:02:24;3.17;;;1.73;;
1294;SDS011;640;48.310;11.728;2022-10-16T03:04:52;2.33;;;1.85;;
1294;SDS011;640;48.310;11.728;2022-10-16T03:07:20;2.83;;;2.00;;
1294;SDS011;640;48.310;11.728;2022-10-16T03:09:49;4.57;;;2.10;;
1294;SDS011;640;48.310;11.728;2022-10-16T03:12:17;2.95;;;1.90;;
1294;SDS011;640;48.310;11.728;2022-10-16T03:14:46;3.63;;;2.00;;
1294;SDS011;640;48.310;11.728;2022-10-16T03:17:16;4.07;;;2.10;;
1294;SDS011;640;48.310;11.728;2022-10-16T03:19:44;8.20;;;2.40;;
1294;SDS011;640;48.310;11.728;2022-10-16T03:22:12;4.18;;;2.20;;
1294;SDS011;640;48.310;11.728;2022-10-16T03:24:41;2.80;;;2.03;;
1294;SDS011;640;48.310;11.728;2022-10-16T03:27:09;4.20;;;2.00;;
1294;SDS011;640;48.310;11.728;2022-10-16T03:29:37;4.25;;;1.92;;
1294;SDS011;640;48.310;11.728;2022-10-16T03:32:05;2.72;;;1.90;;
1294;SDS011;640;48.310;11.728;2022-10-16T03:34:35;5.63;;;2.20;;
1294;SDS011;640;48.310;11.728;2022-10-16T03:37:03;3.80;;;2.00;;
1294;SDS011;640;48.310;11.728;2022-10-16T03:39:31;2.25;;;1.95;;
1294;SDS011;640;48.310;11.728;2022-10-16T03:41:59;2.70;;;1.73;;
1294;SDS011;640;48.310;11.728;2022-10-16T03:44:28;5.90;;;2.22;;
1294;SDS011;640;48.310;11.728;2022-10-16T03:46:56;2.67;;;2.00;;
1294;SDS011;640;48.310;11.728;2022-10-16T03:49:24;3.47;;;1.75;;
1294;SDS011;640;48.310;11.728;2022-10-16T03:51:54;3.17;;;1.83;;
1294;SDS011;640;48.310;11.728;2022-10-16T03:54:22;2.08;;;1.88;;
1294;SDS011;640;48.310;11.728;2022-10-16T03:56:50;3.88;;;1.85;;
1294;SDS011;640;48.310;11.728;2022-10-16T03:59:18;2.72;;;1.95;;
1294;SDS011;640;48.310;11.728;2022-10-16T04:01:47;2.80;;;1.92;;
1294;SDS011;640;48.310;11.728;2022-10-16T04:04:15;5.35;;;1.80;;
1294;SDS011;640;48.310;11.728;2022-10-16T04:06:43;4.97;;;1.85;;
1294;SDS011;640;48.310;11.728;2022-10-16T04:09:13;2.33;;;1.50;;
1294;SDS011;640;48.310;11.728;2022-10-16T04:11:41;1.88;;;1.65;;
1294;SDS011;640;48.310;11.728;2022-10-16T04:14:10;2.70;;;1.80;;
1294;SDS011;640;48.310;11.728;2022-10-16T04:16:38;4.55;;;1.90;;
1294;SDS011;640;48.310;11.728;2022-10-16T04:19:06;2.05;;;1.70;;
1294;SDS011;640;48.310;11.728;2022-10-16T04:21:34;2.45;;;1.90;;
1294;SDS011;640;48.310;11.728;2022-10-16T04:24:03;2.60;;;1.90;;
1294;SDS011;640;48.310;11.728;2022-10-16T04:26:32;4.70;;;2.10;;
1294;SDS011;640;48.310;11.728;2022-10-16T04:29:01;4.83;;;3.20;;
1294;SDS011;640;48.310;11.728;2022-10-16T04:31:29;4.05;;;1.80;;
1294;SDS011;640;48.310;11.728;2022-10-16T04:33:57;1.70;;;1.60;;
1294;SDS011;640;48.310;11.728;2022-10-16T04:36:26;5.53;;;1.92;;
1294;SDS011;640;48.310;11.728;2022-10-16T04:38:55;3.35;;;2.10;;
1294;SDS011;640;48.310;11.728;2022-10-16T04:41:23;3.45;;;2.00;;
1294;SDS011;640;48.310;11.728;2022-10-16T04:43:53;3.00;;;2.20;;
1294;SDS011;640;48.310;11.728;2022-10-16T04:46:21;2.97;;;1.73;;
1294;SDS011;640;48.310;11.728;2022-10-16T04:48:49;2.60;;;1.75;;
1294;SDS011;640;48.310;11.728;2022-10-16T04:51:18;4.43;;;1.60;;
1294;SDS011;640;48.310;11.728;2022-10-16T04:53:46;1.90;;;1.60;;
1294;SDS011;640;48.310;11.728;2022-10-16T04:56:15;3.05;;;1.50;;
1294;SDS011;640;48.310;11.728;2022-10-16T04:58:43;2.15;;;1.70;;
1294;SDS011;640;48.310;11.728;2022-10-16T05:01:13;3.08;;;1.80;;
1294;SDS011;640;48.310;11.728;2022-10-16T05:03:41;3.90;;;2.13;;
1294;SDS011;640;48.310;11.728;2022-10-16T05:06:09;2.33;;;1.60;;
1294;SDS011;640;48.310;11.728;2022-10-16T05:08:38;3.65;;;1.40;;
1294;SDS011;640;48.310;11.728;2022-10-16T05:11:06;3.10;;;1.40;;
1294;SDS011;640;48.310;11.728;2022-10-16T05:13:34;2.03;;;1.65;;
1294;SDS011;640;48.310;11.728;2022-10-16T05:16:02;4.03;;;1.70;;
1294;SDS011;640;48.310;11.728;2022-10-16T05:18:32;4.38;;;1.75;;
1294;SDS011;640;48.310;11.728;2022-10-16T05:21:00;5.60;;;1.77;;
1294;SDS011;640;48.310;11.728;2022-10-16T05:23:29;3.03;;;1.85;;
1294;SDS011;640;48.310;11.728;2022-10-16T05:25:58;3.38;;;1.80;;
1294;SDS011;640;48.310;11.728;2022-10-16T05:28:26;2.38;;;1.95;;
1294;SDS011;640;48.310;11.728;2022-10-16T05:30:55;3.05;;;1.70;;
1294;SDS011;640;48.310;11.728;2022-10-16T05:33:24;2.45;;;1.90;;
1294;SDS011;640;48.310;11.728;2022-10-16T05:35:54;3.13;;;1.90;;
1294;SDS011;640;48.310;11.728;2022-10-16T05:38:23;2.20;;;1.90;;
1294;SDS011;640;48.310;11.728;2022-10-16T05:40:51;3.20;;;2.10;;
1294;SDS011;640;48.310;11.728;2022-10-16T05:43:19;2.13;;;1.90;;
1294;SDS011;640;48.310;11.728;2022-10-16T05:45:53;4.60;;;1.95;;
1294;SDS011;640;48.310;11.728;2022-10-16T05:48:22;2.00;;;1.80;;
1294;SDS011;640;48.310;11.728;2022-10-16T05:50:57;3.55;;;1.70;;
1294;SDS011;640;48.310;11.728;2022-10-16T05:53:26;4.03;;;2.00;;
1294;SDS011;640;48.310;11.728;2022-10-16T05:55:55;4.57;;;1.90;;
1294;SDS011;640;48.310;11.728;2022-10-16T05:58:24;3.53;;;1.75;;
1294;SDS011;640;48.310;11.728;2022-10-16T06:00:54;3.58;;;1.90;;
1294;SDS011;640;48.310;11.728;2022-10-16T06:03:23;2.17;;;1.90;;
1294;SDS011;640;48.310;11.728;2022-10-16T06:05:51;3.30;;;2.33;;
1294;SDS011;640;48.310;11.728;2022-10-16T06:08:22;4.55;;;2.30;;
1294;SDS011;640;48.310;11.728;2022-10-16T06:10:59;6.03;;;2.35;;
1294;SDS011;640;48.310;11.728;2022-10-16T06:13:28;2.10;;;1.90;;
1294;SDS011;640;48.310;11.728;2022-10-16T06:15:57;2.47;;;2.15;;
1294;SDS011;640;48.310;11.728;2022-10-16T06:18:26;4.00;;;2.20;;
1294;SDS011;640;48.310;11.728;2022-10-16T06:20:54;4.40;;;2.90;;
1294;SDS011;640;48.310;11.728;2022-10-16T06:23:24;3.53;;;2.67;;
1294;SDS011;640;48.310;11.728;2022-10-16T06:26:03;2.85;;;2.65;;
1294;SDS011;640;48.310;11.728;2022-10-16T06:28:32;5.68;;;3.15;;
1294;SDS011;640;48.310;11.728;2022-10-16T06:31:01;6.25;;;3.08;;
1294;SDS011;640;48.310;11.728;2022-10-16T06:33:50;4.82;;;2.58;;
1294;SDS011;640;48.310;11.728;2022-10-16T06:38:49;3.38;;;2.40;;
1294;SDS011;640;48.310;11.728;2022-10-16T06:41:18;2.55;;;2.10;;
1294;SDS011;640;48.310;11.728;2022-10-16T06:43:47;4.75;;;2.38;;
1294;SDS011;640;48.310;11.728;2022-10-16T06:46:16;2.53;;;2.05;;
1294;SDS011;640;48.310;11.728;2022-10-16T06:48:45;9.55;;;2.20;;
1294;SDS011;640;48.310;11.728;2022-10-16T06:51:15;3.10;;;1.98;;
1294;SDS011;640;48.310;11.728;2022-10-16T06:53:44;4.60;;;2.13;;
1294;SDS011;640;48.310;11.728;2022-10-16T06:56:30;3.10;;;1.80;;
1294;SDS011;640;48.310;11.728;2022-10-16T07:01:27;2.13;;;1.92;;
1294;SDS011;640;48.310;11.728;2022-10-16T07:03:56;2.53;;;2.10;;
1294;SDS011;640;48.310;11.728;2022-10-16T07:06:25;2.28;;;2.08;;
1294;SDS011;640;48.310;11.728;2022-10-16T07:08:54;3.95;;;2.00;;
1294;SDS011;640;48.310;11.728;2022-10-16T07:11:23;3.72;;;1.88;;
1294;SDS011;640;48.310;11.728;2022-10-16T07:13:53;5.50;;;2.10;;
1294;SDS011;640;48.310;11.728;2022-10-16T07:18:50;4.20;;;1.98;;
1294;SDS011;640;48.310;11.728;2022-10-16T07:21:25;3.25;;;2.00;;
1294;SDS011;640;48.310;11.728;2022-10-16T07:23:56;3.15;;;2.10;;
1294;SDS011;640;48.310;11.728;2022-10-16T07:26:26;3.55;;;2.10;;
1294;SDS011;640;48.310;11.728;2022-10-16T07:28:56;3.80;;;3.10;;
1294;SDS011;640;48.310;11.728;2022-10-16T07:31:24;4.40;;;3.40;;
1294;SDS011;640;48.310;11.728;2022-10-16T07:33:53;4.55;;;3.58;;
1294;SDS011;640;48.310;11.728;2022-10-16T07:36:22;3.58;;;3.22;;
1294;SDS011;640;48.310;11.728;2022-10-16T07:38:50;3.72;;;3.20;;
1294;SDS011;640;48.310;11.728;2022-10-16T07:41:24;4.03;;;2.30;;
1294;SDS011;640;48.310;11.728;2022-10-16T07:43:52;3.20;;;2.17;;
1294;SDS011;640;48.310;11.728;2022-10-16T07:46:23;3.63;;;1.98;;
1294;SDS011;640;48.310;11.728;2022-10-16T07:48:51;3.17;;;1.70;;
1294;SDS011;640;48.310;11.728;2022-10-16T07:51:20;2.28;;;1.90;;
1294;SDS011;640;48.310;11.728;2022-10-16T07:53:49;2.80;;;1.77;;
1294;SDS011;640;48.310;11.728;2022-10-16T07:56:18;2.45;;;1.92;;
1294;SDS011;640;48.310;11.728;2022-10-16T07:58:46;3.60;;;1.95;;
1294;SDS011;640;48.310;11.728;2022-10-16T08:01:16;2.65;;;1.67;;
1294;SDS011;640;48.310;11.728;2022-10-16T08:03:47;4.68;;;1.85;;
1294;SDS011;640;48.310;11.728;2022-10-16T08:06:16;3.95;;;1.70;;
1294;SDS011;640;48.310;11.728;2022-10-16T08:08:51;2.88;;;2.00;;
1294;SDS011;640;48.310;11.728;2022-10-16T08:11:19;3.47;;;2.13;;
1294;SDS011;640;48.310;11.728;2022-10-16T08:13:47;2.15;;;1.80;;
1294;SDS011;640;48.310;11.728;2022-10-16T08:16:15;1.95;;;1.70;;
1294;SDS011;640;48.310;11.728;2022-10-16T08:18:44;2.05;;;1.65;;
1294;SDS011;640;48.310;11.728;2022-10-16T08:21:15;2.53;;;1.70;;
1294;SDS011;640;48.310;11.728;2022-10-16T08:23:47;2.53;;;1.70;;
1294;SDS011;640;48.310;11.728;2022-10-16T08:26:22;2.40;;;1.90;;
1294;SDS011;640;48.310;11.728;2022-10-16T08:28:51;3.35;;;2.03;;
1294;SDS011;640;48.310;11.728;2022-10-16T08:31:20;3.42;;;1.80;;
1294;SDS011;640;48.310;11.728;2022-10-16T08:33:48;5.32;;;2.05;;
1294;SDS011;640;48.310;11.728;2022-10-16T08:36:18;4.43;;;1.70;;
1294;SDS011;640;48.310;11.728;2022-10-16T08:38:47;2.70;;;1.92;;
1294;SDS011;640;48.310;11.728;2022-10-16T08:44:22;2.88;;;1.90;;
1294;SDS011;640;48.310;11.728;2022-10-16T08:46:56;2.72;;;2.00;;
1294;SDS011;640;48.310;11.728;2022-10-16T08:49:30;3.17;;;2.17;;
1294;SDS011;640;48.310;11.728;2022-10-16T08:52:00;2.88;;;1.75;;
1294;SDS011;640;48.310;11.728;2022-10-16T08:54:29;2.73;;;2.13;;
1294;SDS011;640;48.310;11.728;2022-10-16T08:57:04;4.47;;;2.10;;
1294;SDS011;640;48.310;11.728;2022-10-16T08:59:36;3.00;;;2.00;;
1294;SDS011;640;48.310;11.728;2022-10-16T09:02:08;3.03;;;2.03;;
1294;SDS011;640;48.310;11.728;2022-10-16T09:04:55;2.80;;;2.10;;
1294;SDS011;640;48.310;11.728;2022-10-16T09:07:29;3.53;;;2.10;;
1294;SDS011;640;48.310;11.728;2022-10-16T09:10:08;5.00;;;2.10;;
1294;SDS011;640;48.310;11.728;2022-10-16T09:12:52;5.95;;;2.00;;
1294;SDS011;640;48.310;11.728;2022-10-16T09:15:24;5.93;;;2.22;;
1294;SDS011;640;48.310;11.728;2022-10-16T09:17:59;2.40;;;1.95;;
1294;SDS011;640;48.310;11.728;2022-10-16T09:20:30;4.13;;;2.00;;
1294;SDS011;640;48.310;11.728;2022-10-16T09:23:12;3.55;;;2.20;;
1294;SDS011;640;48.310;11.728;2022-10-16T09:28:11;5.32;;;1.80;;
1294;SDS011;640;48.310;11.728;2022-10-16T09:30:40;2.03;;;1.77;;
1294;SDS011;640;48.310;11.728;2022-10-16T09:33:09;2.65;;;1.65;;
1294;SDS011;640;48.310;11.728;2022-10-16T09:35:38;6.43;;;1.95;;
1294;SDS011;640;48.310;11.728;2022-10-16T09:38:08;1.77;;;1.67;;
1294;SDS011;640;48.310;11.728;2022-10-16T09:40:38;2.83;;;1.67;;
1294;SDS011;640;48.310;11.728;2022-10-16T09:43:15;2.72;;;1.80;;
1294;SDS011;640;48.310;11.728;2022-10-16T09:45:55;2.33;;;1.70;;
1294;SDS011;640;48.310;11.728;2022-10-16T09:48:28;4.13;;;1.90;;
1294;SDS011;640;48.310;11.728;2022-10-16T09:51:00;3.08;;;1.70;;
1294;SDS011;640;48.310;11.728;2022-10-16T09:53:37;3.72;;;1.80;;
1294;SDS011;640;48.310;11.728;2022-10-16T09:56:09;4.03;;;1.73;;
1294;SDS011;640;48.310;11.728;2022-10-16T09:58:43;3.67;;;1.75;;
1294;SDS011;640;48.310;11.728;2022-10-16T10:01:18;2.53;;;1.90;;
1294;SDS011;640;48.310;11.728;2022-10-16T10:03:47;6.88;;;2.00;;
1294;SDS011;640;48.310;11.728;2022-10-16T10:06:18;2.13;;;1.60;;
1294;SDS011;640;48.310;11.728;2022-10-16T10:08:58;4.47;;;1.83;;
1294;SDS011;640;48.310;11.728;2022-10-16T10:11:42;2.65;;;1.58;;
1294;SDS011;640;48.310;11.728;2022-10-16T10:14:20;4.10;;;1.80;;
1294;SDS011;640;48.310;11.728;2022-10-16T10:16:51;5.45;;;1.80;;
1294;SDS011;640;48.310;11.728;2022-10-16T10:19:20;2.28;;;1.73;;
1294;SDS011;640;48.310;11.728;2022-10-16T10:21:53;3.58;;;1.90;;
1294;SDS011;640;48.310;11.728;2022-10-16T10:24:21;2.72;;;1.90;;
1294;SDS011;640;48.310;11.728;2022-10-16T10:26:53;1.92;;;1.73;;
1294;SDS011;640;48.310;11.728;2022-10-16T10:29:27;3.40;;;1.65;;
1294;SDS011;640;48.310;11.728;2022-10-16T10:32:02;3.13;;;1.90;;
1294;SDS011;640;48.310;11.728;2022-10-16T10:34:38;2.13;;;1.65;;
1294;SDS011;640;48.310;11.728;2022-10-16T10:37:25;2.83;;;1.95;;
1294;SDS011;640;48.310;11.728;2022-10-16T10:40:00;2.13;;;1.70;;
1294;SDS011;640;48.310;11.728;2022-10-16T10:42:38;3.67;;;1.75;;
1294;SDS011;640;48.310;11.728;2022-10-16T10:45:18;3.53;;;1.83;;
1294;SDS011;640;48.310;11.728;2022-10-16T10:47:55;3.95;;;1.60;;
1294;SDS011;640;48.310;11.728;2022-10-16T10:50:33;1.88;;;1.65;;
1294;SDS011;640;48.310;11.728;2022-10-16T10:53:09;2.88;;;1.73;;
1294;SDS011;640;48.310;11.728;2022-10-16T10:55:43;3.17;;;1.83;;
1294;SDS011;640;48.310;11.728;2022-10-16T10:58:27;5.63;;;1.83;;
1294;SDS011;640;48.310;11.728;2022-10-16T11:01:16;3.67;;;1.90;;
1294;SDS011;640;48.310;11.728;2022-10-16T11:03:50;3.17;;;1.98;;
1294;SDS011;640;48.310;11.728;2022-10-16T11:06:28;2.72;;;1.70;;
1294;SDS011;640;48.310;11.728;2022-10-16T11:08:59;3.67;;;1.70;;
1294;SDS011;640;48.310;11.728;2022-10-16T11:11:31;2.47;;;1.80;;
1294;SDS011;640;48.310;11.728;2022-10-16T11:14:04;3.65;;;1.60;;
1294;SDS011;640;48.310;11.728;2022-10-16T11:16:38;2.53;;;1.40;;
1294;SDS011;640;48.310;11.728;2022-10-16T11:19:10;2.38;;;1.60;;
1294;SDS011;640;48.310;11.728;2022-10-16T11:21:42;5.35;;;1.70;;
1294;SDS011;640;48.310;11.728;2022-10-16T11:24:16;4.07;;;1.20;;
1294;SDS011;640;48.310;11.728;2022-10-16T11:26:48;2.55;;;1.10;;
1294;SDS011;640;48.310;11.728;2022-10-16T11:29:21;1.17;;;1.05;;
1294;SDS011;640;48.310;11.728;2022-10-16T11:31:52;2.42;;;1.00;;
1294;SDS011;640;48.310;11.728;2022-10-16T11:34:24;2.00;;;1.20;;
1294;SDS011;640;48.310;11.728;2022-10-16T11:37:02;2.33;;;1.20;;
1294;SDS011;640;48.310;11.728;2022-10-16T11:39:35;2.05;;;0.80;;
1294;SDS011;640;48.310;11.728;2022-10-16T11:42:08;1.60;;;1.00;;
1294;SDS011;640;48.310;11.728;2022-10-16T11:44:44;1.08;;;0.98;;
1294;SDS011;640;48.310;11.728;2022-10-16T11:47:22;1.45;;;1.00;;
1294;SDS011;640;48.310;11.728;2022-10-16T11:50:17;1.75;;;0.80;;
1294;SDS011;640;48.310;11.728;2022-10-16T11:52:50;3.22;;;1.00;;
1294;SDS011;640;48.310;11.728;2022-10-16T11:55:23;1.38;;;1.10;;
1294;SDS011;640;48.310;11.728;2022-10-16T11:58:06;1.17;;;0.80;;
1294;SDS011;640;48.310;11.728;2022-10-16T12:01:00;1.52;;;1.10;;
1294;SDS011;640;48.310;11.728;2022-10-16T12:03:33;1.38;;;0.90;;
1294;SDS011;640;48.310;11.728;2022-10-16T12:06:06;1.33;;;0.98;;
1294;SDS011;640;48.310;11.728;2022-10-16T12:08:41;2.80;;;1.13;;
1294;SDS011;640;48.310;11.728;2022-10-16T12:11:20;2.15;;;0.93;;
1294;SDS011;640;48.310;11.728;2022-10-16T12:13:51;1.58;;;0.90;;
1294;SDS011;640;48.310;11.728;2022-10-16T12:16:22;1.25;;;0.80;;
1294;SDS011;640;48.310;11.728;2022-10-16T12:19:02;1.42;;;1.00;;
1294;SDS011;640;48.310;11.728;2022-10-16T12:21:41;1.73;;;0.90;;
1294;SDS011;640;48.310;11.728;2022-10-16T12:24:19;2.17;;;0.90;;
1294;SDS011;640;48.310;11.728;2022-10-16T12:26:52;1.30;;;0.90;;
1294;SDS011;640;48.310;11.728;2022-10-16T12:29:32;1.75;;;0.70;;
1294;SDS011;640;48.310;11.728;2022-10-16T12:32:04;1.67;;;0.80;;
1294;SDS011;640;48.310;11.728;2022-10-16T12:34:37;2.42;;;0.95;;
1294;SDS011;640;48.310;11.728;2022-10-16T12:37:08;1.40;;;1.00;;
1294;SDS011;640;48.310;11.728;2022-10-16T12:39:38;1.30;;;0.80;;
1294;SDS011;640;48.310;11.728;2022-10-16T12:42:19;2.85;;;0.90;;
1294;SDS011;640;48.310;11.728;2022-10-16T12:44:50;1.60;;;0.90;;
1294;SDS011;640;48.310;11.728;2022-10-16T12:47:21;0.80;;;0.70;;
1294;SDS011;640;48.310;11.728;2022-10-16T12:49:51;1.00;;;0.90;;
1294;SDS011;640;48.310;11.728;2022-10-16T12:52:24;3.50;;;1.10;;
1294;SDS011;640;48.310;11.728;2022-10-16T12:54:57;1.15;;;0.77;;
1294;SDS011;640;48.310;11.728;2022-10-16T12:57:31;0.98;;;0.85;;
1294;SDS011;640;48.310;11.728;2022-10-16T13:00:09;1.52;;;0.93;;
1294;SDS011;640;48.310;11.728;2022-10-16T13:02:48;0.90;;;0.68;;
1294;SDS011;640;48.310;11.728;2022-10-16T13:05:28;1.98;;;0.80;;
1294;SDS011;640;48.310;11.728;2022-10-16T13:08:04;4.90;;;0.80;;
1294;SDS011;640;48.310;11.728;2022-10-16T13:10:44;0.80;;;0.75;;
1294;SDS011;640;48.310;11.728;2022-10-16T13:13:26;1.55;;;0.80;;
1294;SDS011;640;48.310;11.728;2022-10-16T13:16:08;1.27;;;0.85;;
1294;SDS011;640;48.310;11.728;2022-10-16T13:18:45;0.80;;;0.80;;
1294;SDS011;640;48.310;11.728;2022-10-16T13:21:24;0.95;;;0.70;;
1294;SDS011;640;48.310;11.728;2022-10-16T13:24:00;0.80;;;0.70;;
1294;SDS011;640;48.310;11.728;2022-10-16T13:26:32;1.17;;;0.80;;
1294;SDS011;640;48.310;11.728;2022-10-16T13:29:04;0.93;;;0.80;;
1294;SDS011;640;48.310;11.728;2022-10-16T13:31:33;1.67;;;0.77;;
1294;SDS011;640;48.310;11.728;2022-10-16T13:34:03;1.33;;;0.90;;
1294;SDS011;640;48.310;11.728;2022-10-16T13:36:34;2.42;;;0.90;;
1294;SDS011;640;48.310;11.728;2022-10-16T13:39:07;1.45;;;0.90;;
1294;SDS011;640;48.310;11.728;2022-10-16T13:41:40;1.25;;;0.70;;
1294;SDS011;640;48.310;11.728;2022-10-16T13:44:12;2.22;;;0.82;;
1294;SDS011;640;48.310;11.728;2022-10-16T13:46:41;2.22;;;1.00;;
1294;SDS011;640;48.310;11.728;2022-10-16T13:49:13;1.60;;;0.95;;
1294;SDS011;640;48.310;11.728;2022-10-16T13:51:53;0.95;;;0.80;;
1294;SDS011;640;48.310;11.728;2022-10-16T13:54:22;1.38;;;0.90;;
1294;SDS011;640;48.310;11.728;2022-10-16T13:56:50;1.38;;;0.90;;
1294;SDS011;640;48.310;11.728;2022-10-16T13:59:35;1.13;;;0.85;;
1294;SDS011;640;48.310;11.728;2022-10-16T14:02:06;1.25;;;0.80;;
1294;SDS011;640;48.310;11.728;2022-10-16T14:04:44;2.05;;;0.98;;
1294;SDS011;640;48.310;11.728;2022-10-16T14:07:13;1.30;;;0.77;;
1294;SDS011;640;48.310;11.728;2022-10-16T14:09:48;1.52;;;0.80;;
1294;SDS011;640;48.310;11.728;2022-10-16T14:12:17;1.10;;;0.90;;
1294;SDS011;640;48.310;11.728;2022-10-16T14:14:50;4.00;;;1.00;;
1294;SDS011;640;48.310;11.728;2022-10-16T14:17:21;0.88;;;0.70;;
1294;SDS011;640;48.310;11.728;2022-10-16T14:19:52;2.10;;;0.90;;
1294;SDS011;640;48.310;11.728;2022-10-16T14:22:30;1.30;;;0.70;;
1294;SDS011;640;48.310;11.728;2022-10-16T14:25:00;3.28;;;0.95;;
1294;SDS011;640;48.310;11.728;2022-10-16T14:27:30;0.95;;;0.80;;
1294;SDS011;640;48.310;11.728;2022-10-16T14:30:08;1.60;;;1.00;;
1294;SDS011;640;48.310;11.728;2022-10-16T14:32:41;1.25;;;0.90;;
1294;SDS011;640;48.310;11.728;2022-10-16T14:35:23;1.25;;;0.73;;
1294;SDS011;640;48.310;11.728;2022-10-16T14:37:52;1.45;;;0.60;;
1294;SDS011;640;48.310;11.728;2022-10-16T14:40:21;0.88;;;0.80;;
1294;SDS011;640;48.310;11.728;2022-10-16T14:42:51;2.83;;;1.00;;
1294;SDS011;640;48.310;11.728;2022-10-16T14:45:20;1.70;;;0.95;;
1294;SDS011;640;48.310;11.728;2022-10-16T14:47:50;1.87;;;1.00;;
1294;SDS011;640;48.310;11.728;2022-10-16T14:50:19;2.72;;;0.80;;
1294;SDS011;640;48.310;11.728;2022-10-16T14:52:49;2.08;;;0.88;;
1294;SDS011;640;48.310;11.728;2022-10-16T14:55:18;1.40;;;0.90;;
1294;SDS011;640;48.310;11.728;2022-10-16T14:57:47;1.05;;;0.90;;
1294;SDS011;640;48.310;11.728;2022-10-16T15:00:16;4.50;;;0.95;;
1294;SDS011;640;48.310;11.728;2022-10-16T15:02:47;4.10;;;0.95;;
1294;SDS011;640;48.310;11.728;2022-10-16T15:05:17;2.45;;;0.90;;
1294;SDS011;640;48.310;11.728;2022-10-16T15:07:46;4.10;;;0.88;;
1294;SDS011;640;48.310;11.728;2022-10-16T15:10:17;1.42;;;0.80;;
1294;SDS011;640;48.310;11.728;2022-10-16T15:15:21;1.75;;;1.00;;
1294;SDS011;640;48.310;11.728;2022-10-16T15:17:54;2.73;;;0.90;;
1294;SDS011;640;48.310;11.728;2022-10-16T15:22:52;2.15;;;1.00;;
1294;SDS011;640;48.310;11.728;2022-10-16T15:28:09;1.67;;;0.85;;
1294;SDS011;640;48.310;11.728;2022-10-16T15:30:38;1.30;;;1.00;;
1294;SDS011;640;48.310;11.728;2022-10-16T15:33:10;1.58;;;1.00;;
1294;SDS011;640;48.310;11.728;2022-10-16T15:35:41;3.05;;;1.05;;
1294;SDS011;640;48.310;11.728;2022-10-16T15:38:10;4.10;;;1.40;;
1294;SDS011;640;48.310;11.728;2022-10-16T15:40:41;3.22;;;1.23;;
1294;SDS011;640;48.310;11.728;2022-10-16T15:43:10;4.15;;;1.50;;
1294;SDS011;640;48.310;11.728;2022-10-16T15:45:38;2.22;;;1.35;;
1294;SDS011;640;48.310;11.728;2022-10-16T15:48:08;3.35;;;1.30;;
1294;SDS011;640;48.310;11.728;2022-10-16T15:50:38;4.32;;;1.42;;
1294;SDS011;640;48.310;11.728;2022-10-16T15:53:07;3.15;;;1.50;;
1294;SDS011;640;48.310;11.728;2022-10-16T15:55:36;1.77;;;1.15;;
1294;SDS011;640;48.310;11.728;2022-10-16T15:58:06;3.00;;;1.25;;
1294;SDS011;640;48.310;11.728;2022-10-16T16:00:35;5.22;;;1.40;;
1294;SDS011;640;48.310;11.728;2022-10-16T16:03:04;5.75;;;1.60;;
1294;SDS011;640;48.310;11.728;2022-10-16T16:05:33;6.18;;;1.70;;
1294;SDS011;640;48.310;11.728;2022-10-16T16:08:02;3.22;;;1.95;;
1294;SDS011;640;48.310;11.728;2022-10-16T16:10:30;3.42;;;2.00;;
1294;SDS011;640;48.310;11.728;2022-10-16T16:12:58;2.22;;;1.60;;
1294;SDS011;640;48.310;11.728;2022-10-16T16:15:28;4.35;;;1.33;;